Time;durP1;ratioP1;P1;durP2;ratioP2;P2;SDS_P1;SDS_P2;PMS_P1;PMS_P2;Temp;Humidity;BMP_temperature;BMP_pressure;BME280_temperature;BME280_humidity;BME280_pressure;Samples;Min_cycle;Max_cycle;Signal;HPM_P1;HPM_P2
2021/09/16 00:01:30;;;;;;;;;;;;;;;16.89;100.00;98873.47;5103357;28;19922;-64
2021/09/16 00:03:55;;;;;;;;;;;;;;;16.98;100.00;98872.94;5108533;28;19920;-62
2021/09/16 00:06:20;;;;;;;;;;;;;;;16.99;100.00;98869.41;5099825;28;19976;-60
2021/09/16 00:08:46;;;;;;;;;;;;;;;17.06;100.00;98870.72;5101796;28;19912;-62
2021/09/16 00:11:11;;;;;;;;;;;;;;;16.51;100.00;98879.13;5109832;28;19961;-64
2021/09/16 00:13:37;;;;;;;;;;;;;;;16.90;100.00;98885.53;5099691;28;19967;-66
2021/09/16 00:16:02;;;;;;;;;;;;;;;16.98;100.00;98888.53;5098516;28;19927;-62
2021/09/16 00:18:28;;;;;;;;;;;;;;;17.12;100.00;98885.94;5104227;28;19963;-63
2021/09/16 00:20:53;;;;;;;;;;;;;;;17.11;100.00;98884.28;5101615;28;20365;-64
2021/09/16 00:23:19;;;;;;;;;;;;;;;17.40;100.00;98868.63;5081345;28;19920;-62
2021/09/16 00:25:44;;;;;;;;;;;;;;;16.86;100.00;98878.88;5099625;28;19915;-65
2021/09/16 00:28:10;;;;;;;;;;;;;;;17.09;100.00;98891.31;5099375;28;20403;-62
2021/09/16 00:30:35;;;;;;;;;;;;;;;17.29;100.00;98886.69;5099035;28;19916;-63
2021/09/16 00:33:01;;;;;;;;;;;;;;;16.85;100.00;98887.59;5098583;28;20318;-64
2021/09/16 00:35:26;;;;;;;;;;;;;;;16.52;100.00;98893.81;5100494;28;20310;-64
2021/09/16 00:37:51;;;;;;;;;;;;;;;16.61;100.00;98905.47;5109237;28;19984;-64
2021/09/16 00:40:17;;;;;;;;;;;;;;;16.06;100.00;98899.06;5083994;28;19920;-63
2021/09/16 00:42:42;;;;;;;;;;;;;;;15.73;100.00;98894.78;5087107;28;19916;-66
2021/09/16 00:45:08;;;;;;;;;;;;;;;15.56;100.00;98900.06;5083791;28;20010;-62
2021/09/16 00:47:34;;;;;;;;;;;;;;;15.58;100.00;98906.00;5102400;28;19919;-60
2021/09/16 00:49:59;;;;;;;;;;;;;;;15.87;100.00;98904.41;5101692;28;19930;-64
2021/09/16 00:52:24;;;;;;;;;;;;;;;15.82;100.00;98896.06;5087258;28;19916;-64
2021/09/16 00:54:50;;;;;;;;;;;;;;;15.48;100.00;98898.69;5084182;28;19920;-63
2021/09/16 00:57:17;;;;;;;;;;;;;;;15.55;100.00;98895.75;5085490;28;19923;-64
2021/09/16 00:59:44;;;;;;;;;;;;;;;15.55;100.00;98895.75;5108548;28;19959;-63
2021/09/16 01:02:09;;;;;;;;;;;;;;;15.40;100.00;98880.09;5089494;28;19923;-63
2021/09/16 01:04:35;;;;;;;;;;;;;;;15.42;100.00;98891.25;5101289;28;19916;-63
2021/09/16 01:07:01;;;;;;;;;;;;;;;15.51;100.00;98882.13;5107921;28;19927;-64
2021/09/16 01:09:26;;;;;;;;;;;;;;;15.65;100.00;98886.56;5074796;28;19923;-63
2021/09/16 01:11:52;;;;;;;;;;;;;;;15.68;100.00;98887.22;5103818;28;20487;-63
2021/09/16 01:14:21;;;;;;;;;;;;;;;16.10;100.00;98878.00;5102370;28;19927;-63
2021/09/16 01:16:47;;;;;;;;;;;;;;;15.46;100.00;98890.16;5084723;28;19919;-62
2021/09/16 01:19:13;;;;;;;;;;;;;;;15.56;100.00;98892.28;5101024;28;19927;-61
2021/09/16 01:21:38;;;;;;;;;;;;;;;15.59;100.00;98885.13;5103446;28;20285;-64
2021/09/16 01:24:04;;;;;;;;;;;;;;;15.74;100.00;98899.09;5114613;28;19912;-64
2021/09/16 01:26:29;;;;;;;;;;;;;;;15.79;100.00;98891.03;5104634;28;19920;-63
2021/09/16 01:28:56;;;;;;;;;;;;;;;15.56;100.00;98900.06;5083200;28;19919;-63
2021/09/16 01:31:37;;;;;;;;;;;;;;;15.61;100.00;98892.84;5105051;28;19919;-63
2021/09/16 01:34:06;;;;;;;;;;;;;;;15.65;100.00;98902.16;5095418;28;20461;-64
2021/09/16 01:36:31;;;;;;;;;;;;;;;15.98;100.00;98898.63;5075436;28;19913;-63
2021/09/16 01:38:57;;;;;;;;;;;;;;;15.70;100.00;98892.34;5084186;28;20327;-63
2021/09/16 01:41:22;;;;;;;;;;;;;;;15.52;100.00;98901.13;5096265;28;19955;-62
2021/09/16 01:43:48;;;;;;;;;;;;;;;15.38;100.00;98891.50;5070505;28;19919;-63
2021/09/16 01:46:13;;;;;;;;;;;;;;;15.69;100.00;98896.72;5103107;28;19927;-64
2021/09/16 01:48:38;;;;;;;;;;;;;;;15.53;100.00;98900.19;5100143;28;19924;-62
2021/09/16 01:51:04;;;;;;;;;;;;;;;15.42;100.00;98893.00;5089217;28;20442;-63
2021/09/16 01:53:29;;;;;;;;;;;;;;;15.72;100.00;98893.13;5081560;28;19923;-65
2021/09/16 01:55:55;;;;;;;;;;;;;;;15.65;100.00;98891.75;5105224;28;20276;-64
2021/09/16 01:58:20;;;;;;;;;;;;;;;16.05;100.00;98892.16;5113860;28;19941;-64
2021/09/16 02:00:45;;;;;;;;;;;;;;;15.97;100.00;98886.59;5095654;28;19912;-64
2021/09/16 02:03:11;;;;;;;;;;;;;;;15.79;100.00;98901.44;5114331;28;19939;-64
2021/09/16 02:05:36;;;;;;;;;;;;;;;15.76;100.00;98907.63;5108949;28;19927;-62
2021/09/16 02:08:02;;;;;;;;;;;;;;;15.89;100.00;98902.56;5075358;28;20425;-62
2021/09/16 02:10:27;;;;;;;;;;;;;;;15.64;100.00;98913.44;5101119;28;20322;-64
2021/09/16 02:12:53;;;;;;;;;;;;;;;15.42;100.00;98922.38;5102224;28;19920;-62
2021/09/16 02:15:18;;;;;;;;;;;;;;;15.83;100.00;98927.13;5082644;28;19923;-62
2021/09/16 02:17:43;;;;;;;;;;;;;;;15.82;100.00;98927.22;5100338;28;19964;-64
2021/09/16 02:20:09;;;;;;;;;;;;;;;16.14;100.00;98928.03;5084092;28;19919;-64
2021/09/16 02:22:34;;;;;;;;;;;;;;;16.50;100.00;98919.91;5084300;28;19994;-64
2021/09/16 02:25:00;;;;;;;;;;;;;;;16.77;100.00;98921.00;5100897;28;19973;-63
2021/09/16 02:27:25;;;;;;;;;;;;;;;16.75;100.00;98912.44;5101651;28;19923;-63
2021/09/16 02:29:50;;;;;;;;;;;;;;;16.72;100.00;98914.31;5100573;28;19919;-64
2021/09/16 02:32:16;;;;;;;;;;;;;;;16.79;100.00;98917.41;5102390;28;19981;-62
2021/09/16 02:34:41;;;;;;;;;;;;;;;16.69;100.00;98917.09;5113268;28;19966;-62
2021/09/16 02:37:07;;;;;;;;;;;;;;;16.53;100.00;98918.88;5094866;28;19923;-62
2021/09/16 02:39:32;;;;;;;;;;;;;;;16.45;100.00;98916.75;5102505;28;19920;-65
2021/09/16 02:41:58;;;;;;;;;;;;;;;16.03;100.00;98927.78;5107830;28;19919;-62
2021/09/16 02:44:23;;;;;;;;;;;;;;;16.48;100.00;98920.91;5099479;28;20008;-66
2021/09/16 02:46:48;;;;;;;;;;;;;;;16.80;100.00;98921.69;5099789;28;20917;-64
2021/09/16 02:49:14;;;;;;;;;;;;;;;16.73;100.00;98915.97;5082839;28;19923;-67
2021/09/16 02:51:39;;;;;;;;;;;;;;;16.51;100.00;98916.41;5079934;28;20289;-63
2021/09/16 02:54:05;;;;;;;;;;;;;;;17.45;100.00;98908.25;5065798;28;19920;-64
2021/09/16 02:56:30;;;;;;;;;;;;;;;17.30;100.00;98899.59;5104930;28;19924;-63
2021/09/16 02:58:55;;;;;;;;;;;;;;;17.58;100.00;98905.69;5109193;28;19927;-66
2021/09/16 03:01:21;;;;;;;;;;;;;;;17.33;100.00;98908.97;5100025;28;20328;-64
2021/09/16 03:03:46;;;;;;;;;;;;;;;17.02;100.00;98905.63;5102089;28;20277;-64
2021/09/16 03:06:12;;;;;;;;;;;;;;;17.51;100.00;98907.84;5112539;28;19919;-64
2021/09/16 03:08:37;;;;;;;;;;;;;;;17.22;100.00;98900.97;5112652;28;20425;-63
2021/09/16 03:11:02;;;;;;;;;;;;;;;17.56;100.00;98908.41;5094478;28;20442;-64
2021/09/16 03:13:28;;;;;;;;;;;;;;;17.67;100.00;98906.88;5112447;28;20328;-63
2021/09/16 03:15:53;;;;;;;;;;;;;;;17.51;100.00;98907.84;5100125;28;20472;-63
2021/09/16 03:18:18;;;;;;;;;;;;;;;17.52;100.00;98919.94;5074989;28;19924;-63
2021/09/16 03:20:44;;;;;;;;;;;;;;;17.46;100.00;98915.09;5080312;28;19912;-64
2021/09/16 03:23:09;;;;;;;;;;;;;;;17.61;100.00;98902.06;5094542;28;19969;-63
2021/09/16 03:25:35;;;;;;;;;;;;;;;17.72;100.00;98897.00;5094364;28;19962;-63
2021/09/16 03:28:00;;;;;;;;;;;;;;;16.53;100.00;98905.88;5101624;28;19969;-63
2021/09/16 03:30:25;;;;;;;;;;;;;;;17.45;100.00;98897.81;5101897;28;19964;-61
2021/09/16 03:32:51;;;;;;;;;;;;;;;17.29;100.00;98897.94;5101967;28;19920;-61
2021/09/16 03:35:16;;;;;;;;;;;;;;;16.73;100.00;98905.56;5100445;28;20898;-61
2021/09/16 03:37:42;;;;;;;;;;;;;;;17.59;100.00;98893.53;5101003;28;19912;-64
2021/09/16 03:40:07;;;;;;;;;;;;;;;17.59;100.00;98893.53;5100088;28;21523;-62
2021/09/16 03:42:35;;;;;;;;;;;;;;;17.33;100.00;98890.75;5100222;28;19912;-62
2021/09/16 03:45:00;;;;;;;;;;;;;;;17.26;100.00;98894.66;5080956;28;19964;-63
2021/09/16 03:47:26;;;;;;;;;;;;;;;16.86;100.00;98899.69;5078685;28;20397;-63
2021/09/16 03:49:51;;;;;;;;;;;;;;;16.61;100.00;98901.09;5097045;28;19929;-63
2021/09/16 03:52:17;;;;;;;;;;;;;;;16.67;100.00;98905.09;5099062;28;19919;-62
2021/09/16 03:54:42;;;;;;;;;;;;;;;16.81;100.00;98896.50;5089103;28;20002;-63
2021/09/16 03:57:07;;;;;;;;;;;;;;;17.38;100.00;98899.13;5111594;28;20436;-63
2021/09/16 03:59:33;;;;;;;;;;;;;;;16.99;100.00;98900.63;5087024;28;20014;-63
2021/09/16 04:01:58;;;;;;;;;;;;;;;17.34;100.00;98897.66;5065761;28;20767;-63
2021/09/16 04:04:24;;;;;;;;;;;;;;;17.12;100.00;98901.53;5100928;28;19916;-64
2021/09/16 04:06:49;;;;;;;;;;;;;;;16.46;100.00;98896.78;5097612;28;20524;-63
2021/09/16 04:09:15;;;;;;;;;;;;;;;16.89;100.00;98896.88;5107313;28;22099;-64
2021/09/16 04:11:40;;;;;;;;;;;;;;;17.02;100.00;98894.41;5098621;28;19924;-64
2021/09/16 04:14:06;;;;;;;;;;;;;;;16.93;100.00;98895.78;5099019;28;19946;-66
2021/09/16 04:16:31;;;;;;;;;;;;;;;16.49;100.00;98901.81;5064733;28;20376;-64
2021/09/16 04:18:57;;;;;;;;;;;;;;;16.81;100.00;98906.91;5098696;28;20005;-66
2021/09/16 04:21:22;;;;;;;;;;;;;;;16.61;100.00;98911.50;5100443;28;19937;-63
2021/09/16 04:23:48;;;;;;;;;;;;;;;16.96;100.00;98900.78;5099268;28;20600;-64
2021/09/16 04:26:14;;;;;;;;;;;;;;;17.40;100.00;98912.03;5106475;28;19957;-63
2021/09/16 04:28:40;;;;;;;;;;;;;;;17.69;100.00;98905.84;5075771;28;19927;-62
2021/09/16 04:31:05;;;;;;;;;;;;;;;16.66;100.00;98911.22;5081948;28;19912;-64
2021/09/16 04:33:30;;;;;;;;;;;;;;;17.35;100.00;98912.31;5104764;28;19912;-63
2021/09/16 04:35:56;;;;;;;;;;;;;;;16.84;100.00;98907.56;5103518;28;19916;-63
2021/09/16 04:38:21;;;;;;;;;;;;;;;17.04;100.00;98913.38;5103696;28;19915;-63
2021/09/16 04:40:47;;;;;;;;;;;;;;;16.90;100.00;98906.34;5110224;28;19920;-63
2021/09/16 04:43:12;;;;;;;;;;;;;;;17.19;100.00;98904.59;5110720;28;19919;-61
2021/09/16 04:45:38;;;;;;;;;;;;;;;16.40;100.00;98912.72;5089721;28;19964;-63
2021/09/16 04:48:03;;;;;;;;;;;;;;;17.33;100.00;98904.63;5094842;28;19924;-64
2021/09/16 04:50:29;;;;;;;;;;;;;;;17.74;100.00;98902.97;5098175;28;20389;-65
2021/09/16 04:52:54;;;;;;;;;;;;;;;17.92;100.00;98894.00;5098086;28;19916;-63
2021/09/16 04:55:19;;;;;;;;;;;;;;;17.21;100.00;98894.94;5097507;28;19915;-63
2021/09/16 04:57:45;;;;;;;;;;;;;;;16.84;100.00;98901.53;5093338;28;19916;-60
2021/09/16 05:00:11;;;;;;;;;;;;;;;16.96;100.00;98897.38;5101265;28;19912;-61
2021/09/16 05:02:36;;;;;;;;;;;;;;;16.76;100.00;98898.50;5100721;28;19916;-61
2021/09/16 05:05:02;;;;;;;;;;;;;;;16.65;100.00;98902.59;5099938;28;19931;-63
2021/09/16 05:07:27;;;;;;;;;;;;;;;15.84;100.00;98904.59;5058750;28;20465;-63
2021/09/16 05:09:52;;;;;;;;;;;;;;;15.89;100.00;98908.59;5056285;28;19917;-63
2021/09/16 05:12:18;;;;;;;;;;;;;;;16.38;100.00;98910.22;5054348;28;19921;-60
2021/09/16 05:14:43;;;;;;;;;;;;;;;16.60;100.00;98915.00;5053219;28;19916;-63
2021/09/16 05:17:08;;;;;;;;;;;;;;;16.48;100.00;98915.72;5053914;28;20058;-62
2021/09/16 05:19:34;;;;;;;;;;;;;;;16.49;100.00;98918.25;5052719;28;20277;-62
2021/09/16 05:21:59;;;;;;;;;;;;;;;16.91;100.00;98926.25;5052885;28;20553;-63
2021/09/16 05:24:24;;;;;;;;;;;;;;;17.06;100.00;98921.88;5054504;28;19912;-63
2021/09/16 05:26:50;;;;;;;;;;;;;;;17.39;100.00;98919.03;5057358;28;19912;-63
2021/09/16 05:29:15;;;;;;;;;;;;;;;16.62;100.00;98923.56;5062237;28;19912;-63
2021/09/16 05:31:41;;;;;;;;;;;;;;;17.16;100.00;98927.41;5063066;28;19965;-62
2021/09/16 05:34:06;;;;;;;;;;;;;;;16.58;100.00;98931.63;5061802;28;19920;-63
2021/09/16 05:36:32;;;;;;;;;;;;;;;17.18;100.00;98928.97;5061452;28;19924;-63
2021/09/16 05:38:57;;;;;;;;;;;;;;;16.41;100.00;98936.03;5062461;28;19943;-61
2021/09/16 05:41:23;;;;;;;;;;;;;;;16.10;100.00;98942.09;5062205;28;19916;-60
2021/09/16 05:43:49;;;;;;;;;;;;;;;16.77;100.00;98939.22;5062246;28;20890;-60
2021/09/16 05:46:14;;;;;;;;;;;;;;;17.07;100.00;98933.97;5061783;28;20018;-61
2021/09/16 05:48:39;;;;;;;;;;;;;;;17.14;100.00;98943.91;5060062;28;19923;-61
2021/09/16 05:51:05;;;;;;;;;;;;;;;16.87;100.00;98948.16;5061044;28;19917;-63
2021/09/16 05:53:30;;;;;;;;;;;;;;;17.08;100.00;98951.25;5061810;28;19923;-63
2021/09/16 05:55:56;;;;;;;;;;;;;;;16.87;100.00;98948.16;5061267;28;19923;-61
2021/09/16 05:58:21;;;;;;;;;;;;;;;16.36;100.00;98963.22;5061626;28;19921;-61
2021/09/16 06:00:46;;;;;;;;;;;;;;;16.40;100.00;98969.91;5065425;28;20001;-63
2021/09/16 06:03:12;;;;;;;;;;;;;;;16.99;100.00;98967.41;5064958;28;19919;-63
2021/09/16 06:05:37;;;;;;;;;;;;;;;16.80;100.00;98972.84;5068745;28;19924;-62
2021/09/16 06:08:03;;;;;;;;;;;;;;;16.44;100.00;98966.19;5104043;28;19912;-62
2021/09/16 06:10:28;;;;;;;;;;;;;;;16.18;100.00;98971.09;5100473;28;19916;-62
2021/09/16 06:12:54;;;;;;;;;;;;;;;16.31;100.00;98977.31;5095574;28;19919;-62
2021/09/16 06:15:19;;;;;;;;;;;;;;;17.05;100.00;98973.09;5114263;28;20003;-62
2021/09/16 06:17:44;;;;;;;;;;;;;;;17.20;100.00;98971.34;5097079;28;19951;-62
2021/09/16 06:20:10;;;;;;;;;;;;;;;16.95;100.00;98968.53;5091518;28;19919;-61
2021/09/16 06:22:35;;;;;;;;;;;;;;;17.32;100.00;98977.59;5102805;28;19915;-61
2021/09/16 06:25:00;;;;;;;;;;;;;;;16.73;100.00;98978.38;5082755;28;19920;-61
2021/09/16 06:27:26;;;;;;;;;;;;;;;17.38;100.00;98974.63;5102359;28;20381;-63
2021/09/16 06:29:51;;;;;;;;;;;;;;;17.43;100.00;98972.56;5085221;28;19967;-63
2021/09/16 06:32:16;;;;;;;;;;;;;;;17.46;100.00;98972.38;5108049;28;19912;-62
2021/09/16 06:34:42;;;;;;;;;;;;;;;17.07;100.00;98970.41;5102414;28;19916;-65
2021/09/16 06:37:07;;;;;;;;;;;;;;;17.19;100.00;98972.28;5100385;28;19938;-64
2021/09/16 06:39:33;;;;;;;;;;;;;;;16.87;100.00;98981.97;5084639;28;19919;-63
2021/09/16 06:41:58;;;;;;;;;;;;;;;16.55;100.00;98982.03;5100916;28;19911;-64
2021/09/16 06:44:24;;;;;;;;;;;;;;;17.42;100.00;98983.91;5100380;28;19998;-62
2021/09/16 06:46:49;;;;;;;;;;;;;;;17.32;100.00;98980.19;5104015;28;19927;-64
2021/09/16 06:49:14;;;;;;;;;;;;;;;17.32;100.00;98980.19;5087543;28;19966;-62
2021/09/16 06:51:40;;;;;;;;;;;;;;;17.72;100.00;98989.03;5087177;28;19916;-64
2021/09/16 06:54:05;;;;;;;;;;;;;;;17.03;100.00;98977.53;5099218;28;19923;-63
2021/09/16 06:56:31;;;;;;;;;;;;;;;16.27;100.00;98990.56;5097524;28;19923;-63
2021/09/16 06:58:56;;;;;;;;;;;;;;;16.88;100.00;98996.69;5082108;28;19984;-64
2021/09/16 07:01:22;;;;;;;;;;;;;;;16.68;100.00;98993.41;5098365;28;20613;-65
2021/09/16 07:03:48;;;;;;;;;;;;;;;17.30;100.00;98987.25;5099723;28;20413;-64
2021/09/16 07:06:13;;;;;;;;;;;;;;;17.14;100.00;98993.38;5085826;28;20305;-63
2021/09/16 07:08:39;;;;;;;;;;;;;;;16.72;100.00;98992.31;5104391;28;19912;-63
2021/09/16 07:11:04;;;;;;;;;;;;;;;17.18;100.00;98998.41;5102221;28;20804;-63
2021/09/16 07:13:30;;;;;;;;;;;;;;;17.37;100.00;98998.13;5099794;28;19923;-64
2021/09/16 07:15:55;;;;;;;;;;;;;;;17.56;100.00;98998.69;5098442;28;19926;-63
2021/09/16 07:18:21;;;;;;;;;;;;;;;17.73;100.00;98989.88;5101564;28;20285;-63
2021/09/16 07:20:46;;;;;;;;;;;;;;;17.73;100.00;98995.91;5098466;28;20037;-63
2021/09/16 07:23:11;;;;;;;;;;;;;;;17.95;100.00;98995.44;5099461;28;20410;-61
2021/09/16 07:25:37;;;;;;;;;;;;;;;17.32;100.00;98991.44;5099904;28;19912;-61
2021/09/16 07:28:03;;;;;;;;;;;;;;;17.11;100.00;98993.56;5097554;28;19912;-61
2021/09/16 07:30:28;;;;;;;;;;;;;;;17.00;100.00;99001.16;5098830;28;19916;-63
2021/09/16 07:32:53;;;;;;;;;;;;;;;16.93;100.00;99005.03;5097767;28;20396;-63
2021/09/16 07:35:19;;;;;;;;;;;;;;;16.77;100.00;98999.03;5098432;28;19931;-63
2021/09/16 07:37:44;;;;;;;;;;;;;;;17.84;100.00;98997.06;5097572;28;19916;-62
2021/09/16 07:40:10;;;;;;;;;;;;;;;17.79;100.00;98999.91;5097493;28;20581;-62
2021/09/16 07:42:35;;;;;;;;;;;;;;;17.82;100.00;99010.16;5097411;28;20373;-63
2021/09/16 07:45:01;;;;;;;;;;;;;;;18.26;100.00;99003.09;5079755;28;19977;-62
2021/09/16 07:47:30;;;;;;;;;;;;;;;18.10;100.00;98992.81;5088517;28;19916;-63
2021/09/16 07:49:58;;;;;;;;;;;;;;;17.34;100.00;99004.38;5067931;28;20614;-64
2021/09/16 07:52:23;;;;;;;;;;;;;;;16.91;100.00;99012.94;5068445;28;19916;-61
2021/09/16 07:54:49;;;;;;;;;;;;;;;17.64;100.00;99003.44;5086801;28;19922;-62
2021/09/16 07:57:14;;;;;;;;;;;;;;;17.51;100.00;99011.16;5087618;28;20369;-62
2021/09/16 07:59:40;;;;;;;;;;;;;;;16.31;100.00;99018.06;5084607;28;19955;-61
2021/09/16 08:02:05;;;;;;;;;;;;;;;16.18;100.00;99032.63;5087299;28;20342;-61
2021/09/16 08:04:31;;;;;;;;;;;;;;;17.04;100.00;99026.06;5086983;28;19912;-61
2021/09/16 08:06:56;;;;;;;;;;;;;;;16.48;100.00;99030.09;5082508;28;19945;-61
2021/09/16 08:09:22;;;;;;;;;;;;;;;17.67;100.00;99021.47;5083493;28;19916;-63
2021/09/16 08:11:48;;;;;;;;;;;;;;;18.14;100.00;99015.13;5081470;28;20334;-63
2021/09/16 08:14:14;;;;;;;;;;;;;;;17.13;100.00;99019.50;5080467;28;19962;-63
2021/09/16 08:16:39;;;;;;;;;;;;;;;16.71;100.00;99034.84;5082754;28;19916;-61
2021/09/16 08:19:05;;;;;;;;;;;;;;;17.04;100.00;99020.03;5082007;28;19920;-63
2021/09/16 08:21:30;;;;;;;;;;;;;;;17.06;100.00;99026.81;5082512;28;20027;-63
2021/09/16 08:23:56;;;;;;;;;;;;;;;17.91;100.00;99022.63;5082663;28;19923;-64
2021/09/16 08:26:22;;;;;;;;;;;;;;;17.56;100.00;99020.38;5081789;28;19920;-63
2021/09/16 08:28:48;;;;;;;;;;;;;;;18.65;100.00;99015.34;5083708;28;19920;-63
2021/09/16 08:31:13;;;;;;;;;;;;;;;17.73;100.00;99026.31;5082502;28;19962;-63
2021/09/16 08:33:39;;;;;;;;;;;;;;;17.77;100.00;99026.03;5083500;28;19918;-63
2021/09/16 08:36:04;;;;;;;;;;;;;;;17.84;100.00;99034.34;5080966;28;19963;-63
2021/09/16 08:38:30;;;;;;;;;;;;;;;16.91;100.00;99040.72;5081492;28;19939;-63
2021/09/16 08:40:56;;;;;;;;;;;;;;;17.10;100.00;99043.91;5081241;28;20373;-63
2021/09/16 08:43:25;;;;;;;;;;;;;;;17.92;100.00;99047.72;5081681;28;20411;-63
2021/09/16 08:45:51;;;;;;;;;;;;;;;17.78;100.00;99047.72;5082986;28;19998;-63
2021/09/16 08:48:16;;;;;;;;;;;;;;;17.43;100.00;99050.69;5067049;28;19960;-63
2021/09/16 08:50:41;;;;;;;;;;;;;;;17.10;100.00;99049.09;5084141;28;19963;-62
2021/09/16 08:53:07;;;;;;;;;;;;;;;16.92;100.00;99055.38;5083825;28;19912;-62
2021/09/16 08:55:34;;;;;;;;;;;;;;;16.44;100.00;99057.19;5081926;28;20014;-62
2021/09/16 08:58:00;;;;;;;;;;;;;;;16.42;100.00;99078.09;5083906;28;19965;-62
2021/09/16 09:00:26;;;;;;;;;;;;;;;15.99;100.00;99084.75;5088805;28;19927;-63
2021/09/16 09:02:52;;;;;;;;;;;;;;;16.54;100.00;99086.97;5086311;28;19916;-63
2021/09/16 09:05:18;;;;;;;;;;;;;;;16.93;100.00;99083.09;5089889;28;19935;-63
2021/09/16 09:07:49;;;;;;;;;;;;;;;17.14;100.00;99066.22;5106713;28;19916;-63
2021/09/16 09:10:31;;;;;;;;;;;;;;;16.85;100.00;99070.50;5090752;28;19955;-63
2021/09/16 09:12:57;;;;;;;;;;;;;;;17.74;100.00;99054.03;5089984;28;19951;-63
2021/09/16 09:15:22;;;;;;;;;;;;;;;18.56;100.00;99034.19;5088859;28;19965;-63
2021/09/16 09:17:47;;;;;;;;;;;;;;;19.10;100.00;99030.72;5092525;28;19920;-63
2021/09/16 09:20:14;;;;;;;;;;;;;;;17.98;100.00;99044.75;5070913;28;19923;-63
2021/09/16 09:22:41;;;;;;;;;;;;;;;18.69;100.00;99037.69;5085828;28;20006;-62
2021/09/16 09:25:10;;;;;;;;;;;;;;;18.79;100.00;99045.78;5089282;28;19992;-62
2021/09/16 09:27:56;;;;;;;;;;;;;;;18.44;100.00;99048.03;5088708;28;20987;-63
2021/09/16 09:30:31;;;;;;;;;;;;;;;18.66;100.00;99048.31;5087841;28;19924;-62
2021/09/16 09:33:00;;;;;;;;;;;;;;;18.84;100.00;99051.56;5074388;28;19916;-63
2021/09/16 09:35:26;;;;;;;;;;;;;;;18.52;100.00;99046.59;5084783;28;19915;-61
2021/09/16 09:37:51;;;;;;;;;;;;;;;18.64;100.00;99044.97;5084689;28;20003;-61
2021/09/16 09:40:24;;;;;;;;;;;;;;;19.40;100.00;99041.69;5085356;28;19927;-62
2021/09/16 09:42:49;;;;;;;;;;;;;;;19.07;100.00;99041.34;5086889;28;19919;-61
2021/09/16 09:48:17;;;;;;;;;;;;;;;18.84;100.00;99050.69;5101400;28;19958;-61
2021/09/16 09:50:45;;;;;;;;;;;;;;;19.45;100.00;99046.59;5086171;28;19947;-62
2021/09/16 09:53:12;;;;;;;;;;;;;;;19.49;100.00;99048.09;5080669;28;20015;-63
2021/09/16 09:55:39;;;;;;;;;;;;;;;19.52;100.00;99050.47;5081714;28;19928;-61
2021/09/16 09:58:05;;;;;;;;;;;;;;;19.13;100.00;99054.81;5098197;28;19998;-60
2021/09/16 10:00:30;;;;;;;;;;;;;;;18.75;100.00;99058.16;5082101;28;20476;-63
2021/09/16 10:02:56;;;;;;;;;;;;;;;18.95;100.00;99048.22;5097532;28;19916;-64
2021/09/16 10:05:27;;;;;;;;;;;;;;;19.64;100.00;99047.03;5098539;28;20335;-64
2021/09/16 10:07:53;;;;;;;;;;;;;;;19.17;100.00;99052.88;5080252;28;19997;-62
2021/09/16 10:10:19;;;;;;;;;;;;;;;18.58;100.00;99061.00;5098096;28;20090;-63
2021/09/16 10:12:45;;;;;;;;;;;;;;;18.07;100.00;99063.38;5099651;28;20423;-63
2021/09/16 10:15:11;;;;;;;;;;;;;;;18.51;100.00;99060.56;5099391;28;19983;-65
2021/09/16 10:17:37;;;;;;;;;;;;;;;19.42;100.00;99052.88;5080308;28;19916;-63
2021/09/16 10:20:03;;;;;;;;;;;;;;;19.68;100.00;99049.44;5096230;28;20354;-63
2021/09/16 10:22:29;;;;;;;;;;;;;;;19.70;100.00;99053.63;5084830;28;19923;-65
2021/09/16 10:24:54;;;;;;;;;;;;;;;19.14;100.00;99050.47;5101293;28;19930;-63
2021/09/16 10:27:29;;;;;;;;;;;;;;;19.31;100.00;99060.59;5081916;28;20366;-63
2021/09/16 10:29:54;;;;;;;;;;;;;;;19.44;100.00;99061.44;5102593;28;19922;-63
2021/09/16 10:32:20;;;;;;;;;;;;;;;19.17;100.00;99052.88;5105784;28;20377;-64
2021/09/16 10:34:46;;;;;;;;;;;;;;;19.42;100.00;99058.09;5099156;28;20227;-63
2021/09/16 10:37:12;;;;;;;;;;;;;;;19.63;100.00;99063.63;5099694;28;20293;-64
2021/09/16 10:39:38;;;;;;;;;;;;;;;19.45;100.00;99067.50;5081159;28;19920;-63
2021/09/16 10:42:04;;;;;;;;;;;;;;;20.53;100.00;99054.84;5097642;28;19916;-62
2021/09/16 10:44:30;;;;;;;;;;;;;;;19.06;100.00;99069.22;5079092;28;19923;-61
2021/09/16 10:47:00;;;;;;;;;;;;;;;19.29;100.00;99066.88;5096488;28;20281;-63
2021/09/16 10:49:28;;;;;;;;;;;;;;;19.04;100.00;99071.09;5098431;28;19927;-63
2021/09/16 10:51:53;;;;;;;;;;;;;;;18.61;100.00;99071.28;5096149;28;20304;-63
2021/09/16 10:54:24;;;;;;;;;;;;;;;18.80;100.00;99071.78;5096816;28;19927;-63
2021/09/16 10:57:09;;;;;;;;;;;;;;;18.43;100.00;99077.63;5100020;28;19920;-63
2021/09/16 10:59:47;;;;;;;;;;;;;;;18.51;100.00;99078.81;5098751;28;19923;-63
2021/09/16 11:02:15;;;;;;;;;;;;;;;18.38;100.00;99081.38;5098936;28;20322;-63
2021/09/16 11:04:56;;;;;;;;;;;;;;;18.71;100.00;99074.94;5101315;28;19916;-63
2021/09/16 11:07:33;;;;;;;;;;;;;;;18.33;100.00;99083.41;5099704;28;20304;-64
2021/09/16 11:10:19;;;;;;;;;;;;;;;17.72;100.00;99087.16;5098017;28;19916;-63
2021/09/16 11:12:50;;;;;;;;;;;;;;;17.80;100.00;99092.75;5086994;28;20212;-63
2021/09/16 11:15:26;;;;;;;;;;;;;;;19.65;100.00;99082.66;5083578;28;20337;-64
2021/09/16 11:17:51;;;;;;;;;;;;;;;18.74;100.00;99085.16;5101310;28;19930;-62
2021/09/16 11:20:19;;;;;;;;;;;;;;;19.55;100.00;99079.03;5079544;28;19924;-63
2021/09/16 11:22:49;;;;;;;;;;;;;;;20.08;100.00;99076.28;5099662;28;19918;-62
2021/09/16 11:25:15;;;;;;;;;;;;;;;20.44;100.00;99072.84;5100548;28;20318;-63
2021/09/16 11:27:40;;;;;;;;;;;;;;;19.53;100.00;99070.44;5096804;28;19920;-62
2021/09/16 11:30:06;;;;;;;;;;;;;;;20.69;100.00;99068.50;5110310;28;19919;-63
2021/09/16 11:32:35;;;;;;;;;;;;;;;20.76;100.00;99072.34;5095350;28;19916;-62
2021/09/16 11:35:01;;;;;;;;;;;;;;;19.37;100.00;99072.44;5099505;28;20399;-64
2021/09/16 11:37:30;;;;;;;;;;;;;;;20.84;100.00;99067.34;5101291;28;19923;-63
2021/09/16 11:40:06;;;;;;;;;;;;;;;20.37;100.00;99066.41;5097390;28;19931;-63
2021/09/16 11:42:36;;;;;;;;;;;;;;;20.88;100.00;99065.38;5079042;28;19965;-64
2021/09/16 11:45:01;;;;;;;;;;;;;;;21.06;100.00;99063.19;5084166;28;20388;-64
2021/09/16 11:47:27;;;;;;;;;;;;;;;20.74;100.00;99063.75;5085043;28;19915;-64
2021/09/16 11:49:52;;;;;;;;;;;;;;;20.87;100.00;99069.78;5083089;28;19916;-64
2021/09/16 11:52:19;;;;;;;;;;;;;;;19.25;100.00;99070.63;5084810;28;19916;-64
2021/09/16 11:55:03;;;;;;;;;;;;;;;20.27;100.00;99081.91;5077672;28;19934;-63
2021/09/16 11:57:29;;;;;;;;;;;;;;;20.98;100.00;99060.28;5072813;28;19912;-64
2021/09/16 11:59:55;;;;;;;;;;;;;;;21.42;100.00;99058.78;5081960;28;20384;-64
2021/09/16 12:02:20;;;;;;;;;;;;;;;21.83;100.00;99049.53;5093987;28;19912;-63
2021/09/16 12:04:46;;;;;;;;;;;;;;;22.34;100.00;99044.59;5070908;28;19916;-63
2021/09/16 12:07:15;;;;;;;;;;;;;;;23.25;100.00;99041.63;5074505;28;19921;-62
2021/09/16 12:09:40;;;;;;;;;;;;;;;22.63;100.00;99040.59;5076054;28;19923;-62
2021/09/16 12:12:08;;;;;;;;;;;;;;;23.53;100.00;99035.69;5079943;28;21458;-62
2021/09/16 12:14:34;;;;;;;;;;;;;;;23.01;100.00;99040.06;5080815;28;20010;-61
2021/09/16 12:17:03;;;;;;;;;;;;;;;22.27;100.00;99037.34;5064868;28;20010;-62
2021/09/16 12:19:28;;;;;;;;;;;;;;;22.49;100.00;99039.91;5080379;28;19970;-63
2021/09/16 12:21:54;;;;;;;;;;;;;;;21.35;100.00;99031.31;5078788;28;19916;-63
2021/09/16 12:24:22;;;;;;;;;;;;;;;20.50;100.00;99034.94;5078914;28;19931;-63
2021/09/16 12:26:50;;;;;;;;;;;;;;;21.56;100.00;99029.72;5075838;28;20022;-64
2021/09/16 12:29:25;;;;;;;;;;;;;;;20.84;100.00;99029.88;5079484;28;20467;-63
2021/09/16 12:31:59;;;;;;;;;;;;;;;21.57;100.00;99033.19;5086245;28;20456;-63
2021/09/16 12:34:31;;;;;;;;;;;;;;;21.25;100.00;99032.03;5074529;28;20436;-62